| time (UTC) | temp F | wind direction | speed MPH | gust MPH | rain 1hr in | rain 24hr in | rain mn in | humidity % | barometer mb |
| 20260901183006 | 87 | 55 | 2.0 | 15.0 | 0.00 | 0.03 | 0.03 | 81 | 1012.4 |
| 20260901183001 | 88 | 55 | 4.0 | 15.0 | 0.00 | 0.03 | 0.03 | 81 | 1012.5 |
| 20260901182748 | 88 | 47 | 4.0 | 15.0 | 0.00 | 0.03 | 0.03 | 81 | 1012.5 |
| 20260901182002 | 88 | 71 | 3.0 | 7.0 | 0.00 | 0.03 | 0.03 | 77 | 1012.5 |
| 20260901181750 | 88 | 66 | 3.0 | 7.0 | 0.00 | 0.03 | 0.03 | 81 | 1012.6 |
| 20260901181002 | 88 | 62 | 3.0 | 7.0 | 0.00 | 0.03 | 0.03 | 80 | 1012.6 |
| 20260901180503 | 89 | 264 | 3.0 | 8.0 | 0.00 | 0.03 | 0.03 | 81 | 1012.6 |
| 20260901180055 | 88 | 32 | 3.0 | 8.0 | 0.00 | 0.03 | 0.03 | 80 | 1012.4 |
| 20260901180002 | 89 | 40 | 4.0 | 9.0 | 0.00 | 0.03 | 0.03 | 81 | 1012.5 |
| 20260901175502 | 88 | 324 | 4.0 | 9.0 | 0.00 | 0.03 | 0.03 | 81 | 1012.5 |
| 20260901175001 | 88 | 72 | 3.0 | 9.0 | 0.00 | 0.03 | 0.03 | 80 | 1012.5 |
| 20260901174530 | 87 | 38 | 2.0 | 10.0 | 0.00 | 0.03 | 0.03 | 82 | 1012.5 |
| 20260901174502 | 87 | 40 | 3.0 | 10.0 | 0.00 | 0.03 | 0.03 | 82 | 1012.6 |
| 20260901174003 | 88 | 339 | 3.0 | 10.0 | 0.00 | 0.03 | 0.03 | 81 | 1012.6 |
| 20260901173504 | 88 | 20 | 4.0 | 10.0 | 0.00 | 0.03 | 0.03 | 82 | 1012.6 |
| 20260901173029 | 87 | 44 | 3.0 | 10.0 | 0.00 | 0.03 | 0.03 | 81 | 1012.7 |
| 20260901173002 | 88 | 53 | 4.0 | 10.0 | 0.00 | 0.03 | 0.03 | 81 | 1012.8 |
| 20260901172752 | 88 | 62 | 3.0 | 11.0 | 0.00 | 0.03 | 0.03 | 81 | 1012.8 |
| 20260901172002 | 88 | 340 | 3.0 | 11.0 | 0.00 | 0.03 | 0.03 | 81 | 1012.8 |
| 20260901171535 | 88 | 5 | 2.0 | 8.0 | 0.00 | 0.03 | 0.03 | 81 | 1012.9 |
| 20260901171503 | 88 | 38 | 3.0 | 8.0 | 0.00 | 0.03 | 0.03 | 81 | 1013.1 |
| 20260901171256 | 89 | 28 | 3.0 | 8.0 | 0.00 | 0.03 | 0.03 | 80 | 1013.1 |
| 20260901170502 | 88 | 350 | 3.0 | 6.0 | 0.00 | 0.03 | 0.03 | 80 | 1013.1 |
| 20260901170031 | 88 | 44 | 2.0 | 8.0 | 0.00 | 0.03 | 0.03 | 80 | 1012.9 |
| 20260901170002 | 88 | 67 | 4.0 | 10.0 | 0.00 | 0.03 | 0.03 | 80 | 1013.1 |
| 20260901165502 | 88 | 42 | 4.0 | 10.0 | 0.00 | 0.03 | 0.03 | 79 | 1013.1 |
| 20260901165001 | 88 | 326 | 3.0 | 10.0 | 0.00 | 0.03 | 0.03 | 80 | 1013.1 |
| 20260901164520 | 87 | 45 | 2.0 | 8.0 | 0.00 | 0.03 | 0.03 | 80 | 1012.9 |
| 20260901164503 | 87 | 42 | 3.0 | 8.0 | 0.00 | 0.03 | 0.03 | 81 | 1013.1 |
| 20260901164252 | 88 | 49 | 4.0 | 11.0 | 0.00 | 0.03 | 0.03 | 79 | 1013.1 |
| 20260901163501 | 89 | 39 | 4.0 | 11.0 | 0.00 | 0.03 | 0.03 | 78 | 1013.1 |
| 20260901163014 | 89 | 43 | 2.0 | 10.0 | 0.00 | 0.03 | 0.03 | 79 | 1013.0 |
| 20260901163001 | 89 | 40 | 4.0 | 10.0 | 0.00 | 0.03 | 0.03 | 79 | 1013.1 |
| 20260901162501 | 89 | 46 | 4.0 | 10.0 | 0.00 | 0.03 | 0.03 | 77 | 1013.1 |
| 20260901162000 | 89 | 19 | 3.0 | 9.0 | 0.00 | 0.03 | 0.03 | 77 | 1013.1 |
| 20260901161513 | 88 | 13 | 1.0 | 6.0 | 0.00 | 0.03 | 0.03 | 76 | 1013.0 |
| 20260901161501 | 88 | 13 | 3.0 | 6.0 | 0.00 | 0.03 | 0.03 | 76 | 1013.1 |
| 20260901161004 | 88 | 25 | 3.0 | 8.0 | 0.00 | 0.03 | 0.03 | 77 | 1013.1 |
| 20260901160502 | 88 | 43 | 3.0 | 8.0 | 0.00 | 0.03 | 0.03 | 79 | 1013.1 |
| 20260901160107 | 88 | 49 | 4.0 | 8.0 | 0.00 | 0.03 | 0.03 | 78 | 1013.1 |
| 20260901160001 | 88 | 37 | 3.0 | 8.0 | 0.00 | 0.03 | 0.03 | 78 | 1013.2 |
| 20260901155501 | 88 | 34 | 3.0 | 8.0 | 0.00 | 0.03 | 0.03 | 80 | 1013.2 |
| 20260901155001 | 88 | 40 | 2.0 | 8.0 | 0.00 | 0.03 | 0.03 | 79 | 1013.2 |
| 20260901154533 | 88 | 28 | 1.0 | 6.0 | 0.00 | 0.03 | 0.03 | 81 | 1013.3 |
| 20260901154503 | 88 | 42 | 3.0 | 6.0 | 0.00 | 0.03 | 0.03 | 81 | 1013.5 |
| 20260901154002 | 87 | 74 | 3.0 | 7.0 | 0.00 | 0.03 | 0.03 | 81 | 1013.5 |
| 20260901153501 | 88 | 70 | 3.0 | 7.0 | 0.00 | 0.03 | 0.03 | 81 | 1013.5 |
| 20260901153022 | 87 | 62 | 2.0 | 7.0 | 0.00 | 0.03 | 0.03 | 80 | 1013.4 |
| 20260901153001 | 88 | 65 | 3.0 | 7.0 | 0.00 | 0.03 | 0.03 | 80 | 1013.5 |
| 20260901152501 | 88 | 327 | 3.0 | 9.0 | 0.00 | 0.03 | 0.03 | 80 | 1013.5 |
| 20260901152002 | 87 | 57 | 3.0 | 9.0 | 0.00 | 0.03 | 0.03 | 80 | 1013.5 |
| 20260901151754 | 87 | 67 | 2.0 | 7.0 | 0.00 | 0.03 | 0.03 | 80 | 1013.4 |
| 20260901151002 | 87 | 325 | 1.0 | 7.0 | 0.00 | 0.03 | 0.03 | 82 | 1013.4 |
| 20260901150504 | 86 | 324 | 1.0 | 5.0 | 0.00 | 0.03 | 0.03 | 83 | 1013.4 |
| 20260901150013 | 85 | 329 | 2.0 | 5.0 | 0.00 | 0.03 | 0.03 | 83 | 1013.2 |
| 20260901150004 | 86 | 329 | 3.0 | 5.0 | 0.00 | 0.03 | 0.03 | 83 | 1013.3 |
| 20260901145502 | 86 | 22 | 2.0 | 5.0 | 0.00 | 0.03 | 0.03 | 83 | 1013.3 |
| 20260901145004 | 86 | 34 | 1.0 | 3.0 | 0.00 | 0.03 | 0.03 | 83 | 1013.3 |
| 20260901144507 | 85 | 309 | 0.0 | 3.0 | 0.00 | 0.03 | 0.03 | 83 | 1013.0 |
| 20260901144502 | 86 | 309 | 1.0 | 5.0 | 0.00 | 0.03 | 0.03 | 83 | 1013.1 |
| 20260901144003 | 86 | 333 | 1.0 | 5.0 | 0.00 | 0.03 | 0.03 | 85 | 1013.1 |
| 20260901143502 | 86 | 331 | 1.0 | 3.0 | 0.00 | 0.03 | 0.03 | 85 | 1013.1 |
| 20260901143007 | 84 | 250 | 0.0 | 1.0 | 0.00 | 0.03 | 0.03 | 86 | 1013.0 |
| 20260901143002 | 85 | 250 | 0.0 | 1.0 | 0.00 | 0.03 | 0.03 | 86 | 1013.1 |
| 20260901142501 | 84 | 293 | 1.0 | 2.0 | 0.00 | 0.03 | 0.03 | 86 | 1013.1 |
| 20260901142004 | 84 | 287 | 1.0 | 4.0 | 0.00 | 0.03 | 0.03 | 85 | 1013.1 |
| 20260901141607 | 83 | 334 | 0.0 | 4.0 | 0.00 | 0.03 | 0.03 | 85 | 1012.9 |
| 20260901141546 | 84 | 329 | 3.0 | 7.0 | 0.00 | 0.03 | 0.03 | 85 | 1013.1 |
| 20260901141535 | 84 | 335 | 2.0 | 5.0 | 0.00 | 0.03 | 0.03 | 85 | 1013.1 |
| 20260901141524 | 83 | 335 | 1.0 | 4.0 | 0.00 | 0.03 | 0.03 | 85 | 1012.9 |
| 20260901140501 | 84 | 342 | 2.0 | 7.0 | 0.00 | 0.03 | 0.03 | 85 | 1013.1 |
| 20260901140114 | 83 | 37 | 1.0 | 4.0 | 0.00 | 0.03 | 0.03 | 87 | 1012.9 |
| 20260901140001 | 84 | 348 | 1.0 | 4.0 | 0.00 | 0.03 | 0.03 | 87 | 1013.1 |
| 20260901135500 | 83 | 27 | 1.0 | 2.0 | 0.00 | 0.03 | 0.03 | 87 | 1013.1 |
| 20260901135258 | 83 | 13 | 1.0 | 3.0 | 0.00 | 0.03 | 0.03 | 87 | 1013.1 |
| 20260901134530 | 83 | 15 | 0.0 | 3.0 | 0.00 | 0.03 | 0.03 | 87 | 1012.9 |
| 20260901134503 | 83 | 15 | 1.0 | 3.0 | 0.00 | 0.03 | 0.03 | 87 | 1013.0 |
| 20260901134001 | 84 | 26 | 1.0 | 3.0 | 0.00 | 0.03 | 0.03 | 87 | 1013.0 |
| 20260901133759 | 84 | 56 | 1.0 | 4.0 | 0.00 | 0.03 | 0.03 | 88 | 1013.0 |
| 20260901133027 | 83 | 329 | 1.0 | 4.0 | 0.00 | 0.03 | 0.03 | 88 | 1012.9 |
| 20260901133001 | 84 | 329 | 1.0 | 4.0 | 0.00 | 0.03 | 0.03 | 88 | 1013.0 |
| 20260901132502 | 83 | 33 | 1.0 | 4.0 | 0.00 | 0.03 | 0.03 | 88 | 1013.0 |
| 20260901132255 | 83 | 322 | 1.0 | 3.0 | 0.00 | 0.03 | 0.03 | 89 | 1013.0 |
| 20260901131511 | 82 | 29 | 1.0 | 3.0 | 0.00 | 0.03 | 0.03 | 89 | 1012.8 |
| 20260901131504 | 82 | 29 | 1.0 | 3.0 | 0.00 | 0.03 | 0.03 | 89 | 1013.0 |
| 20260901131255 | 82 | 324 | 1.0 | 4.0 | 0.00 | 0.03 | 0.03 | 90 | 1013.0 |
| 20260901130504 | 82 | 323 | 1.0 | 4.0 | 0.00 | 0.03 | 0.03 | 91 | 1013.0 |
| 20260901130009 | 81 | 321 | 0.0 | 3.0 | 0.00 | 0.03 | 0.03 | 91 | 1012.6 |
| 20260901130004 | 82 | 328 | 0.0 | 3.0 | 0.00 | 0.03 | 0.03 | 91 | 1012.7 |
| 20260901125607 | 81 | 13 | 1.0 | 4.0 | 0.00 | 0.03 | 0.03 | 92 | 1012.7 |
| 20260901125547 | 81 | 327 | 1.0 | 3.0 | 0.00 | 0.03 | 0.03 | 92 | 1012.7 |
| 20260901124753 | 81 | 323 | 1.0 | 4.0 | 0.00 | 0.03 | 0.03 | 92 | 1012.8 |
| 20260901124004 | 81 | 325 | 0.0 | 2.0 | 0.00 | 0.03 | 0.03 | 93 | 1012.8 |
| 20260901123503 | 81 | 342 | 0.0 | 2.0 | 0.00 | 0.03 | 0.03 | 93 | 1012.8 |
| 20260901123008 | 80 | 335 | 0.0 | 2.0 | 0.00 | 0.03 | 0.03 | 93 | 1012.5 |
| 20260901123003 | 80 | 335 | 0.0 | 2.0 | 0.00 | 0.03 | 0.03 | 93 | 1012.6 |
| 20260901122751 | 80 | 335 | 0.0 | 1.0 | 0.00 | 0.03 | 0.03 | 93 | 1012.6 |
| 20260901122002 | 80 | 335 | 1.0 | 2.0 | 0.00 | 0.03 | 0.03 | 94 | 1012.6 |
| 20260901121754 | 79 | 339 | 1.0 | 2.0 | 0.00 | 0.03 | 0.03 | 94 | 1012.5 |
| 20260901121002 | 79 | 332 | 1.0 | 3.0 | 0.00 | 0.03 | 0.03 | 94 | 1012.5 |
| 20260901120501 | 79 | 323 | 1.0 | 3.0 | 0.00 | 0.03 | 0.03 | 94 | 1012.5 |
| 20260901120044 | 78 | 329 | 0.0 | 2.0 | 0.00 | 0.03 | 0.03 | 94 | 1012.1 |
| 20260901120002 | 78 | 341 | 1.0 | 2.0 | 0.00 | 0.03 | 0.03 | 94 | 1012.2 |
| 20260901115501 | 78 | 194 | 0.0 | 2.0 | 0.00 | 0.03 | 0.03 | 94 | 1012.2 |
| 20260901115001 | 78 | 188 | 0.0 | 1.0 | 0.00 | 0.03 | 0.03 | 94 | 1012.2 |
| 20260901114533 | 77 | 186 | 0.0 | 1.0 | 0.00 | 0.03 | 0.03 | 94 | 1011.9 |
| 20260901114501 | 77 | 186 | 0.0 | 1.0 | 0.00 | 0.03 | 0.03 | 94 | 1012.0 |
| 20260901114002 | 77 | 185 | 0.0 | 0.0 | 0.00 | 0.03 | 0.03 | 94 | 1012.0 |
| 20260901113508 | 77 | 185 | 0.0 | 0.0 | 0.00 | 0.03 | 0.03 | 94 | 1012.0 |
| 20260901113018 | 76 | 185 | 0.0 | 0.0 | 0.00 | 0.03 | 0.03 | 94 | 1011.8 |
| 20260901112942 | 76 | 185 | 0.0 | 0.0 | 0.00 | 0.03 | 0.03 | 94 | 1011.9 |
| 20260901112431 | 76 | 185 | 0.0 | 0.0 | 0.00 | 0.03 | 0.03 | 94 | 1011.9 |
| 20260901111930 | 76 | 185 | 0.0 | 0.0 | 0.00 | 0.03 | 0.03 | 94 | 1011.9 |
| 20260901111502 | 76 | 185 | 0.0 | 0.0 | 0.00 | 0.03 | 0.03 | 94 | 1011.4 |
| 20260901111430 | 76 | 185 | 0.0 | 0.0 | 0.00 | 0.03 | 0.03 | 94 | 1011.5 |
| 20260901110930 | 76 | 185 | 0.0 | 0.0 | 0.00 | 0.03 | 0.03 | 94 | 1011.5 |
| 20260901110430 | 76 | 185 | 0.0 | 0.0 | 0.00 | 0.03 | 0.03 | 94 | 1011.5 |
| 20260901110039 | 76 | 185 | 0.0 | 0.0 | 0.00 | 0.03 | 0.03 | 94 | 1011.4 |
| 20260901105930 | 76 | 185 | 0.0 | 0.0 | 0.00 | 0.03 | 0.03 | 94 | 1011.5 |
| 20260901105723 | 76 | 185 | 0.0 | 0.0 | 0.00 | 0.03 | 0.03 | 94 | 1011.5 |
| 20260901104930 | 76 | 185 | 0.0 | 0.0 | 0.00 | 0.03 | 0.03 | 94 | 1011.5 |
| 20260901104718 | 76 | 185 | 0.0 | 0.0 | 0.00 | 0.03 | 0.03 | 94 | 1011.5 |
| 20260901104642 | 76 | 185 | 0.0 | 0.0 | 0.00 | 0.03 | 0.03 | 94 | 1011.4 |
| 20260901103931 | 76 | 185 | 0.0 | 0.0 | 0.00 | 0.03 | 0.03 | 94 | 1011.5 |
| 20260901103430 | 76 | 185 | 0.0 | 0.0 | 0.00 | 0.03 | 0.03 | 94 | 1011.5 |
| 20260901103014 | 76 | 185 | 0.0 | 0.0 | 0.00 | 0.03 | 0.03 | 94 | 1011.4 |
| 20260901102935 | 76 | 185 | 0.0 | 0.0 | 0.00 | 0.03 | 0.03 | 94 | 1011.5 |
| 20260901102430 | 76 | 185 | 0.0 | 0.0 | 0.00 | 0.03 | 0.03 | 94 | 1011.5 |
| 20260901101930 | 76 | 185 | 0.0 | 0.0 | 0.00 | 0.03 | 0.03 | 94 | 1011.5 |
| 20260901101509 | 76 | 185 | 0.0 | 0.0 | 0.00 | 0.03 | 0.03 | 94 | 1011.4 |
| 20260901101429 | 76 | 185 | 0.0 | 0.0 | 0.00 | 0.03 | 0.03 | 94 | 1011.5 |
| 20260901101018 | 76 | 185 | 0.0 | 0.0 | 0.00 | 0.03 | 0.03 | 94 | 1011.5 |
| 20260901101001 | 76 | 185 | 0.0 | 0.0 | 0.00 | 0.03 | 0.03 | 94 | 1011.5 |
| 20260901100002 | 76 | 185 | 0.0 | 0.0 | 0.00 | 0.03 | 0.03 | 94 | 1011.4 |
| 20260901095930 | 76 | 185 | 0.0 | 0.0 | 0.00 | 0.03 | 0.03 | 94 | 1011.5 |
| 20260901095429 | 76 | 185 | 0.0 | 0.0 | 0.00 | 0.03 | 0.03 | 94 | 1011.5 |
| 20260901095110 | 77 | 185 | 0.0 | 0.0 | 0.00 | 0.03 | 0.03 | 93 | 1011.5 |
| 20260901095043 | 76 | 185 | 0.0 | 0.0 | 0.00 | 0.03 | 0.03 | 94 | 1011.5 |
| 20260901094520 | 76 | 185 | 0.0 | 0.0 | 0.00 | 0.03 | 0.03 | 94 | 1011.3 |
| 20260901094502 | 77 | 185 | 0.0 | 0.0 | 0.00 | 0.03 | 0.03 | 94 | 1011.5 |
| 20260901093429 | 77 | 185 | 0.0 | 0.0 | 0.00 | 0.03 | 0.03 | 93 | 1011.5 |
| 20260901093037 | 76 | 185 | 0.0 | 0.0 | 0.00 | 0.03 | 0.03 | 93 | 1011.4 |
| 20260901092929 | 77 | 185 | 0.0 | 0.0 | 0.00 | 0.03 | 0.03 | 93 | 1011.5 |
| 20260901092431 | 77 | 185 | 0.0 | 0.0 | 0.00 | 0.03 | 0.03 | 93 | 1011.5 |
| 20260901091930 | 77 | 185 | 0.0 | 0.0 | 0.00 | 0.03 | 0.03 | 93 | 1011.5 |
| 20260901091544 | 76 | 185 | 0.0 | 1.0 | 0.00 | 0.03 | 0.03 | 93 | 1011.4 |
| 20260901091432 | 77 | 185 | 0.0 | 1.0 | 0.00 | 0.03 | 0.03 | 93 | 1011.5 |
| 20260901090929 | 77 | 185 | 0.0 | 1.0 | 0.00 | 0.03 | 0.03 | 93 | 1011.5 |
| 20260901090430 | 77 | 185 | 0.0 | 0.0 | 0.00 | 0.03 | 0.03 | 93 | 1011.5 |
| 20260901090216 | 77 | 185 | 0.0 | 0.0 | 0.00 | 0.03 | 0.03 | 93 | 1011.5 |
| 20260901090148 | 77 | 185 | 0.0 | 0.0 | 0.00 | 0.03 | 0.03 | 93 | 1011.3 |
| 20260901085430 | 77 | 185 | 0.0 | 0.0 | 0.00 | 0.03 | 0.03 | 93 | 1011.5 |
| 20260901084930 | 77 | 185 | 0.0 | 0.0 | 0.00 | 0.03 | 0.03 | 93 | 1011.5 |
| 20260901084503 | 77 | 185 | 0.0 | 0.0 | 0.00 | 0.03 | 0.03 | 93 | 1011.3 |
| 20260901084430 | 77 | 185 | 0.0 | 0.0 | 0.00 | 0.03 | 0.03 | 93 | 1011.5 |
| 20260901083928 | 77 | 185 | 0.0 | 0.0 | 0.00 | 0.03 | 0.03 | 93 | 1011.5 |
| 20260901083429 | 77 | 185 | 0.0 | 0.0 | 0.00 | 0.03 | 0.03 | 93 | 1011.5 |
| 20260901083219 | 77 | 185 | 0.0 | 0.0 | 0.00 | 0.03 | 0.03 | 93 | 1011.4 |
| 20260901083150 | 77 | 185 | 0.0 | 0.0 | 0.00 | 0.03 | 0.03 | 93 | 1011.3 |
| 20260901082421 | 78 | 185 | 0.0 | 0.0 | 0.00 | 0.03 | 0.03 | 93 | 1011.4 |
| 20260901081921 | 78 | 185 | 0.0 | 0.0 | 0.00 | 0.03 | 0.03 | 93 | 1011.4 |
| 20260901081600 | 77 | 185 | 0.0 | 1.0 | 0.00 | 0.03 | 0.03 | 93 | 1011.3 |
| 20260901081418 | 78 | 185 | 0.0 | 1.0 | 0.00 | 0.03 | 0.03 | 93 | 1011.5 |
| 20260901080916 | 78 | 185 | 0.0 | 1.0 | 0.00 | 0.03 | 0.03 | 93 | 1011.5 |
| 20260901080415 | 78 | 182 | 0.0 | 0.0 | 0.00 | 0.03 | 0.03 | 93 | 1011.5 |
| 20260901080112 | 77 | 182 | 0.0 | 0.0 | 0.00 | 0.03 | 0.03 | 93 | 1011.4 |
| 20260901075912 | 78 | 182 | 0.0 | 0.0 | 0.00 | 0.03 | 0.03 | 93 | 1011.5 |
| 20260901075410 | 78 | 182 | 0.0 | 0.0 | 0.00 | 0.03 | 0.03 | 93 | 1011.5 |
| 20260901074909 | 78 | 182 | 0.0 | 1.0 | 0.00 | 0.03 | 0.03 | 93 | 1011.5 |
| 20260901074523 | 78 | 182 | 0.0 | 1.0 | 0.00 | 0.03 | 0.03 | 93 | 1011.7 |
| 20260901074407 | 78 | 182 | 0.0 | 1.0 | 0.00 | 0.03 | 0.03 | 93 | 1011.8 |
| 20260901074146 | 78 | 182 | 0.0 | 0.0 | 0.00 | 0.03 | 0.03 | 93 | 1011.8 |
| 20260901073402 | 78 | 182 | 0.0 | 0.0 | 0.00 | 0.03 | 0.03 | 93 | 1011.8 |
| 20260901073142 | 78 | 182 | 0.0 | 0.0 | 0.00 | 0.03 | 0.03 | 93 | 1011.9 |
| 20260901073115 | 78 | 182 | 0.0 | 0.0 | 0.00 | 0.03 | 0.03 | 93 | 1011.8 |
| 20260901072402 | 78 | 182 | 0.0 | 0.0 | 0.00 | 0.03 | 0.03 | 93 | 1011.9 |
| 20260901071902 | 78 | 182 | 0.0 | 0.0 | 0.00 | 0.03 | 0.03 | 93 | 1011.9 |
| 20260901071550 | 78 | 182 | 0.0 | 0.0 | 0.00 | 0.03 | 0.03 | 93 | 1011.8 |
| 20260901071402 | 78 | 182 | 0.0 | 0.0 | 0.00 | 0.03 | 0.03 | 93 | 1011.9 |
| 20260901070901 | 78 | 182 | 0.0 | 0.0 | 0.00 | 0.03 | 0.03 | 93 | 1011.9 |
| 20260901070400 | 78 | 182 | 0.0 | 0.0 | 0.00 | 0.03 | 0.03 | 93 | 1011.9 |
| 20260901070036 | 78 | 182 | 0.0 | 0.0 | 0.00 | 0.03 | 0.03 | 93 | 1011.9 |
| 20260901065902 | 78 | 182 | 0.0 | 0.0 | 0.00 | 0.03 | 0.03 | 93 | 1012.0 |
| 20260901065652 | 78 | 182 | 0.0 | 0.0 | 0.00 | 0.03 | 0.03 | 93 | 1012.0 |
| 20260901064901 | 78 | 182 | 0.0 | 0.0 | 0.00 | 0.03 | 0.03 | 93 | 1012.0 |
| 20260901064521 | 78 | 182 | 0.0 | 0.0 | 0.00 | 0.03 | 0.03 | 93 | 1012.1 |
| 20260901064401 | 78 | 182 | 0.0 | 0.0 | 0.00 | 0.03 | 0.03 | 93 | 1012.2 |
| 20260901063901 | 79 | 182 | 0.0 | 0.0 | 0.00 | 0.03 | 0.03 | 93 | 1012.2 |
| 20260901063402 | 79 | 182 | 0.0 | 0.0 | 0.00 | 0.03 | 0.03 | 93 | 1012.2 |
| 20260901063004 | 78 | 182 | 0.0 | 0.0 | 0.00 | 0.03 | 0.03 | 93 | 1012.3 |
| 20260901062902 | 79 | 182 | 0.0 | 0.0 | 0.00 | 0.03 | 0.03 | 93 | 1012.4 |
| 20260901062403 | 79 | 182 | 0.0 | 1.0 | 0.00 | 0.03 | 0.03 | 93 | 1012.4 |
| 20260901061904 | 79 | 180 | 0.0 | 1.0 | 0.01 | 0.03 | 0.03 | 93 | 1012.4 |
| 20260901061504 | 78 | 179 | 0.0 | 1.0 | 0.01 | 0.03 | 0.03 | 93 | 1012.2 |
| 20260901061404 | 79 | 179 | 0.0 | 0.0 | 0.01 | 0.03 | 0.03 | 93 | 1012.3 |
| 20260901060903 | 79 | 179 | 0.0 | 0.0 | 0.03 | 0.03 | 0.03 | 93 | 1012.3 |
| 20260901060402 | 79 | 179 | 0.0 | 0.0 | 0.03 | 0.03 | 0.03 | 93 | 1012.3 |
| 20260901060057 | 79 | 179 | 0.0 | 0.0 | 0.03 | 0.03 | 0.03 | 93 | 1012.4 |
| 20260901055901 | 79 | 179 | 0.0 | 0.0 | 0.03 | 0.03 | 0.03 | 93 | 1012.6 |
| 20260901055401 | 79 | 179 | 0.0 | 0.0 | 0.03 | 0.03 | 0.03 | 93 | 1012.6 |
| 20260901054902 | 79 | 179 | 0.0 | 0.0 | 0.03 | 0.03 | 0.03 | 92 | 1012.6 |
| 20260901054651 | 79 | 179 | 0.0 | 0.0 | 0.03 | 0.03 | 0.03 | 92 | 1012.7 |
| 20260901054620 | 79 | 179 | 0.0 | 0.0 | 0.03 | 0.03 | 0.03 | 92 | 1012.6 |
| 20260901053902 | 79 | 179 | 0.0 | 1.0 | 0.03 | 0.03 | 0.03 | 93 | 1012.7 |
| 20260901053401 | 79 | 179 | 0.0 | 1.0 | 0.03 | 0.03 | 0.03 | 92 | 1012.7 |
| 20260901053037 | 79 | 123 | 0.0 | 2.0 | 0.03 | 0.03 | 0.03 | 92 | 1012.7 |
| 20260901052851 | 80 | 123 | 0.0 | 2.0 | 0.03 | 0.03 | 0.03 | 92 | 1012.9 |
| 20260901052350 | 80 | 123 | 0.0 | 2.0 | 0.03 | 0.03 | 0.03 | 93 | 1012.9 |
| 20260901051849 | 79 | 311 | 0.0 | 1.0 | 0.02 | 0.02 | 0.02 | 92 | 1012.9 |
| 20260901051523 | 79 | 338 | 0.0 | 1.0 | 0.02 | 0.02 | 0.02 | 92 | 1012.9 |
| 20260901051351 | 79 | 355 | 0.0 | 1.0 | 0.01 | 0.01 | 0.00 | 92 | 1013.0 |
| 20260901050851 | 79 | 355 | 0.0 | 1.0 | 0.00 | 0.00 | 0.00 | 92 | 1013.0 |
| 20260901050350 | 79 | 355 | 0.0 | 1.0 | 0.00 | 0.00 | 0.00 | 92 | 1013.0 |
| 20260901050141 | 79 | 355 | 0.0 | 1.0 | 0.00 | 0.00 | 0.00 | 92 | 1013.1 |
| 20260901050106 | 79 | 355 | 0.0 | 1.0 | 0.00 | 0.00 | 0.00 | 92 | 1012.9 |
| 20260901045350 | 79 | 355 | 0.0 | 1.0 | 0.00 | 0.00 | 0.00 | 92 | 1013.1 |
| 20260901045129 | 80 | 355 | 0.0 | 1.0 | 0.00 | 0.00 | 0.00 | 92 | 1013.1 |
| 20260901044631 | 80 | 355 | 0.0 | 0.0 | 0.00 | 0.00 | 0.00 | 92 | 1013.1 |
| 20260901044610 | 79 | 355 | 0.0 | 0.0 | 0.00 | 0.00 | 0.00 | 92 | 1012.9 |
| 20260901043831 | 80 | 355 | 0.0 | 0.0 | 0.00 | 0.00 | 0.00 | 92 | 1013.1 |
| 20260901043622 | 80 | 355 | 0.0 | 0.0 | 0.00 | 0.00 | 0.00 | 92 | 1013.1 |
| 20260901043035 | 79 | 355 | 0.0 | 0.0 | 0.00 | 0.00 | 0.00 | 92 | 1012.9 |
| 20260901042832 | 80 | 355 | 0.0 | 0.0 | 0.00 | 0.00 | 0.00 | 92 | 1013.1 |
| 20260901042332 | 80 | 355 | 0.0 | 0.0 | 0.00 | 0.00 | 0.00 | 92 | 1013.1 |
| 20260901041830 | 80 | 355 | 0.0 | 0.0 | 0.00 | 0.00 | 0.00 | 92 | 1013.1 |
| 20260901041619 | 80 | 355 | 0.0 | 0.0 | 0.00 | 0.00 | 0.00 | 92 | 1013.1 |
| 20260901041544 | 79 | 355 | 0.0 | 0.0 | 0.00 | 0.00 | 0.00 | 92 | 1012.9 |
| 20260901040831 | 80 | 355 | 0.0 | 0.0 | 0.00 | 0.00 | 0.00 | 91 | 1013.1 |
| 20260901040331 | 80 | 355 | 0.0 | 0.0 | 0.00 | 0.00 | 0.00 | 91 | 1013.1 |
| 20260901040037 | 79 | 355 | 0.0 | 0.0 | 0.00 | 0.00 | 0.00 | 91 | 1012.9 |
| 20260901035832 | 80 | 355 | 0.0 | 0.0 | 0.00 | 0.00 | 0.00 | 91 | 1013.1 |
| 20260901035331 | 80 | 355 | 0.0 | 0.0 | 0.00 | 0.00 | 0.00 | 91 | 1013.1 |
| 20260901034831 | 80 | 355 | 0.0 | 0.0 | 0.00 | 0.00 | 0.00 | 91 | 1013.1 |
| 20260901034534 | 80 | 355 | 0.0 | 0.0 | 0.00 | 0.00 | 0.00 | 91 | 1013.0 |
| 20260901034331 | 80 | 355 | 0.0 | 0.0 | 0.00 | 0.00 | 0.00 | 91 | 1013.1 |
| 20260901033830 | 80 | 355 | 0.0 | 0.0 | 0.00 | 0.00 | 0.00 | 91 | 1013.1 |
| 20260901033330 | 80 | 355 | 0.0 | 0.0 | 0.00 | 0.00 | 0.00 | 91 | 1013.1 |
| 20260901033035 | 80 | 355 | 0.0 | 0.0 | 0.00 | 0.00 | 0.00 | 91 | 1013.1 |
| 20260901032830 | 80 | 355 | 0.0 | 0.0 | 0.00 | 0.00 | 0.00 | 91 | 1013.3 |
| 20260901032331 | 80 | 355 | 0.0 | 0.0 | 0.00 | 0.00 | 0.00 | 91 | 1013.3 |
| 20260901031831 | 80 | 355 | 0.0 | 0.0 | 0.00 | 0.00 | 0.00 | 91 | 1013.3 |
| 20260901031613 | 80 | 355 | 0.0 | 1.0 | 0.00 | 0.00 | 0.00 | 91 | 1013.2 |
| 20260901031548 | 80 | 355 | 0.0 | 0.0 | 0.00 | 0.00 | 0.00 | 91 | 1013.1 |
| 20260901030824 | 80 | 355 | 0.0 | 1.0 | 0.00 | 0.00 | 0.00 | 91 | 1013.2 |
| 20260901030322 | 80 | 355 | 0.0 | 1.0 | 0.00 | 0.00 | 0.00 | 91 | 1013.2 |
| 20260901030004 | 80 | 355 | 0.0 | 1.0 | 0.00 | 0.00 | 0.00 | 91 | 1013.3 |
| 20260901025823 | 80 | 355 | 0.0 | 1.0 | 0.00 | 0.00 | 0.00 | 91 | 1013.4 |
| 20260901025321 | 80 | 355 | 0.0 | 0.0 | 0.00 | 0.00 | 0.00 | 91 | 1013.4 |
| 20260901025116 | 80 | 355 | 0.0 | 0.0 | 0.00 | 0.00 | 0.00 | 91 | 1013.4 |
| 20260901024549 | 80 | 355 | 0.0 | 0.0 | 0.00 | 0.00 | 0.00 | 91 | 1013.4 |
| 20260901024318 | 80 | 355 | 0.0 | 0.0 | 0.00 | 0.00 | 0.00 | 91 | 1013.6 |
| 20260901023816 | 80 | 355 | 0.0 | 0.0 | 0.00 | 0.00 | 0.00 | 91 | 1013.6 |
| 20260901023316 | 80 | 355 | 0.0 | 0.0 | 0.00 | 0.00 | 0.00 | 91 | 1013.6 |
| 20260901023034 | 80 | 355 | 0.0 | 0.0 | 0.00 | 0.00 | 0.00 | 91 | 1013.1 |
| 20260901022816 | 80 | 355 | 0.0 | 0.0 | 0.00 | 0.00 | 0.00 | 91 | 1013.3 |
| 20260901022312 | 80 | 355 | 0.0 | 0.0 | 0.00 | 0.00 | 0.00 | 91 | 1013.3 |
| 20260901022106 | 80 | 355 | 0.0 | 0.0 | 0.00 | 0.00 | 0.00 | 91 | 1013.3 |
| 20260901021514 | 80 | 355 | 0.0 | 0.0 | 0.00 | 0.00 | 0.00 | 91 | 1012.9 |
| 20260901021305 | 80 | 355 | 0.0 | 0.0 | 0.00 | 0.00 | 0.00 | 91 | 1013.1 |
| 20260901020802 | 80 | 355 | 0.0 | 0.0 | 0.00 | 0.00 | 0.00 | 91 | 1013.1 |
| 20260901020304 | 80 | 355 | 0.0 | 0.0 | 0.00 | 0.00 | 0.00 | 91 | 1013.1 |
| 20260901020011 | 80 | 355 | 0.0 | 0.0 | 0.00 | 0.00 | 0.00 | 91 | 1012.8 |
| 20260901015806 | 80 | 355 | 0.0 | 0.0 | 0.00 | 0.00 | 0.00 | 91 | 1013.0 |
| 20260901015549 | 80 | 355 | 0.0 | 0.0 | 0.00 | 0.00 | 0.00 | 90 | 1013.0 |
| 20260901015103 | 80 | 355 | 0.0 | 1.0 | 0.00 | 0.00 | 0.00 | 90 | 1013.0 |
| 20260901014541 | 80 | 355 | 0.0 | 1.0 | 0.00 | 0.00 | 0.00 | 90 | 1012.5 |
| 20260901014302 | 80 | 355 | 0.0 | 1.0 | 0.00 | 0.00 | 0.00 | 90 | 1012.6 |
| 20260901013802 | 81 | 355 | 0.0 | 2.0 | 0.00 | 0.00 | 0.00 | 90 | 1012.6 |
| 20260901013303 | 81 | 355 | 0.0 | 2.0 | 0.00 | 0.00 | 0.00 | 90 | 1012.6 |
| 20260901013034 | 80 | 355 | 0.0 | 2.0 | 0.00 | 0.00 | 0.00 | 90 | 1012.6 |
| 20260901012802 | 81 | 0 | 0.0 | 1.0 | 0.00 | 0.00 | 0.00 | 90 | 1012.7 |
| 20260901012555 | 81 | 46 | 0.0 | 1.0 | 0.00 | 0.00 | 0.00 | 90 | 1012.7 |
| 20260901011803 | 81 | 46 | 0.0 | 1.0 | 0.00 | 0.00 | 0.00 | 90 | 1012.7 |
| 20260901011530 | 81 | 45 | 0.0 | 1.0 | 0.00 | 0.00 | 0.00 | 90 | 1012.5 |
| 20260901011302 | 81 | 46 | 0.0 | 1.0 | 0.00 | 0.00 | 0.00 | 90 | 1012.7 |
| 20260901010801 | 81 | 45 | 0.0 | 0.0 | 0.00 | 0.00 | 0.00 | 90 | 1012.7 |
| 20260901010301 | 81 | 45 | 0.0 | 0.0 | 0.00 | 0.00 | 0.00 | 90 | 1012.7 |
| 20260901010023 | 81 | 46 | 0.0 | 0.0 | 0.00 | 0.00 | 0.00 | 90 | 1012.4 |
| 20260901005802 | 81 | 46 | 0.0 | 0.0 | 0.00 | 0.00 | 0.00 | 90 | 1012.6 |
| 20260901005553 | 81 | 45 | 0.0 | 0.0 | 0.00 | 0.00 | 0.00 | 90 | 1012.6 |
| 20260901004802 | 81 | 46 | 0.0 | 1.0 | 0.00 | 0.00 | 0.00 | 89 | 1012.6 |
| 20260901004555 | 82 | 45 | 0.0 | 2.0 | 0.00 | 0.00 | 0.00 | 89 | 1012.6 |
| 20260901004516 | 81 | 46 | 0.0 | 1.0 | 0.00 | 0.00 | 0.00 | 89 | 1012.4 |
| 20260901003804 | 82 | 46 | 0.0 | 2.0 | 0.00 | 0.00 | 0.00 | 89 | 1012.6 |
| 20260901003302 | 82 | 9 | 0.0 | 1.0 | 0.00 | 0.00 | 0.00 | 89 | 1012.6 |
| 20260901003004 | 81 | 350 | 0.0 | 1.0 | 0.00 | 0.00 | 0.00 | 89 | 1012.4 |
| 20260901002803 | 82 | 14 | 0.0 | 1.0 | 0.00 | 0.00 | 0.00 | 89 | 1012.5 |
| 20260901002305 | 81 | 355 | 0.0 | 1.0 | 0.00 | 0.00 | 0.00 | 89 | 1012.5 |
| 20260901001803 | 82 | 355 | 0.0 | 1.0 | 0.00 | 0.00 | 0.00 | 89 | 1012.5 |
| 20260901001502 | 81 | 355 | 0.0 | 1.0 | 0.00 | 0.00 | 0.00 | 88 | 1012.4 |
| 20260901001303 | 82 | 355 | 0.0 | 1.0 | 0.00 | 0.00 | 0.00 | 88 | 1012.5 |
| 20260901001055 | 82 | 355 | 0.0 | 0.0 | 0.00 | 0.00 | 0.00 | 88 | 1012.5 |
| 20260901000307 | 82 | 355 | 0.0 | 0.0 | 0.00 | 0.00 | 0.00 | 88 | 1012.5 |
| 20260901000133 | 82 | 355 | 0.0 | 0.0 | 0.00 | 0.00 | 0.00 | 87 | 1012.6 |
| 20260901000058 | 81 | 355 | 0.0 | 0.0 | 0.00 | 0.00 | 0.00 | 88 | 1012.4 |
| 20260831235832 | 82 | 355 | 0.0 | 0.0 | 0.00 | 0.00 | 0.00 | 87 | 1012.6 |
| 20260831234803 | 82 | 355 | 0.0 | 1.0 | 0.00 | 0.00 | 0.00 | 87 | 1012.6 |
| 20260831234505 | 82 | 355 | 0.0 | 2.0 | 0.00 | 0.00 | 0.00 | 87 | 1012.4 |
| 20260831234304 | 82 | 355 | 0.0 | 2.0 | 0.00 | 0.00 | 0.00 | 87 | 1012.5 |
| 20260831234049 | 82 | 355 | 0.0 | 2.0 | 0.00 | 0.00 | 0.00 | 87 | 1012.5 |
| 20260831233302 | 82 | 345 | 0.0 | 0.0 | 0.00 | 0.00 | 0.00 | 87 | 1012.5 |
| 20260831233045 | 82 | 319 | 0.0 | 0.0 | 0.00 | 0.00 | 0.00 | 87 | 1012.1 |
| 20260831232801 | 82 | 319 | 0.0 | 1.0 | 0.00 | 0.00 | 0.00 | 87 | 1012.2 |
| 20260831232305 | 83 | 309 | 0.0 | 2.0 | 0.00 | 0.00 | 0.00 | 87 | 1012.2 |
| 20260831232050 | 83 | 308 | 1.0 | 4.0 | 0.00 | 0.00 | 0.00 | 87 | 1012.2 |
| 20260831231550 | 82 | 23 | 0.0 | 4.0 | 0.00 | 0.00 | 0.00 | 86 | 1012.3 |
| 20260831231303 | 83 | 342 | 1.0 | 4.0 | 0.00 | 0.00 | 0.00 | 86 | 1012.4 |
| 20260831230801 | 83 | 342 | 1.0 | 4.0 | 0.00 | 0.00 | 0.00 | 86 | 1012.4 |
| 20260831230546 | 83 | 329 | 0.0 | 2.0 | 0.00 | 0.00 | 0.00 | 86 | 1012.4 |
| 20260831230017 | 82 | 17 | 0.0 | 4.0 | 0.00 | 0.00 | 0.00 | 86 | 1012.0 |
| 20260831225747 | 83 | 329 | 1.0 | 4.0 | 0.00 | 0.00 | 0.00 | 86 | 1012.1 |
| 20260831225248 | 83 | 329 | 1.0 | 4.0 | 0.00 | 0.00 | 0.00 | 86 | 1012.1 |
| 20260831224747 | 83 | 331 | 1.0 | 3.0 | 0.00 | 0.00 | 0.00 | 86 | 1012.1 |
| 20260831224519 | 82 | 340 | 0.0 | 3.0 | 0.00 | 0.00 | 0.00 | 86 | 1012.0 |
| 20260831224250 | 83 | 22 | 1.0 | 3.0 | 0.00 | 0.00 | 0.00 | 86 | 1012.1 |
| 20260831223748 | 83 | 22 | 1.0 | 3.0 | 0.00 | 0.00 | 0.00 | 86 | 1012.1 |
| 20260831223248 | 83 | 48 | 1.0 | 3.0 | 0.00 | 0.00 | 0.00 | 86 | 1012.1 |
| 20260831223004 | 82 | 13 | 1.0 | 3.0 | 0.00 | 0.00 | 0.00 | 86 | 1011.9 |
| 20260831222748 | 83 | 29 | 1.0 | 3.0 | 0.00 | 0.00 | 0.00 | 87 | 1012.0 |
| 20260831222248 | 83 | 43 | 1.0 | 4.0 | 0.00 | 0.00 | 0.00 | 87 | 1012.0 |
| 20260831222029 | 83 | 21 | 1.0 | 4.0 | 0.00 | 0.00 | 0.00 | 87 | 1012.0 |
| 20260831221505 | 83 | 38 | 1.0 | 4.0 | 0.00 | 0.00 | 0.00 | 88 | 1012.0 |
| 20260831221243 | 83 | 333 | 1.0 | 4.0 | 0.00 | 0.00 | 0.00 | 88 | 1012.1 |
| 20260831220743 | 83 | 19 | 1.0 | 4.0 | 0.00 | 0.00 | 0.00 | 88 | 1012.1 |
| 20260831220242 | 83 | 342 | 0.0 | 2.0 | 0.00 | 0.00 | 0.00 | 88 | 1012.1 |
| 20260831220056 | 83 | 327 | 0.0 | 2.0 | 0.00 | 0.00 | 0.00 | 88 | 1012.3 |
| 20260831215843 | 83 | 338 | 1.0 | 3.0 | 0.00 | 0.00 | 0.00 | 88 | 1012.4 |
| 20260831215828 | 83 | 278 | 1.0 | 3.0 | 0.00 | 0.00 | 0.00 | 88 | 1012.4 |
| 20260831214741 | 83 | 322 | 2.0 | 4.0 | 0.00 | 0.00 | 0.00 | 88 | 1012.4 |
| 20260831214544 | 83 | 334 | 0.0 | 4.0 | 0.00 | 0.00 | 0.00 | 88 | 1012.4 |
| 20260831214527 | 83 | 340 | 2.0 | 5.0 | 0.00 | 0.00 | 0.00 | 88 | 1012.6 |
| 20260831214504 | 83 | 334 | 0.0 | 5.0 | 0.00 | 0.00 | 0.00 | 88 | 1012.4 |
| 20260831213740 | 84 | 348 | 2.0 | 5.0 | 0.00 | 0.00 | 0.00 | 87 | 1012.6 |
| 20260831213241 | 84 | 12 | 2.0 | 5.0 | 0.00 | 0.00 | 0.00 | 87 | 1012.6 |
| 20260831213031 | 84 | 344 | 2.0 | 5.0 | 0.00 | 0.00 | 0.00 | 87 | 1012.4 |
| 20260831212739 | 84 | 331 | 3.0 | 6.0 | 0.00 | 0.00 | 0.00 | 87 | 1012.5 |
| 20260831212241 | 85 | 290 | 3.0 | 6.0 | 0.00 | 0.00 | 0.00 | 85 | 1012.5 |
| 20260831211733 | 85 | 318 | 3.0 | 7.0 | 0.00 | 0.00 | 0.00 | 86 | 1012.5 |
| 20260831211527 | 84 | 29 | 2.0 | 7.0 | 0.00 | 0.00 | 0.00 | 86 | 1012.4 |
| 20260831211232 | 85 | 9 | 3.0 | 7.0 | 0.00 | 0.00 | 0.00 | 86 | 1012.5 |
| 20260831210731 | 85 | 338 | 2.0 | 6.0 | 0.00 | 0.00 | 0.00 | 85 | 1012.5 |
| 20260831210230 | 85 | 39 | 2.0 | 6.0 | 0.00 | 0.00 | 0.00 | 85 | 1012.5 |
| 20260831210018 | 85 | 45 | 2.0 | 6.0 | 0.00 | 0.00 | 0.00 | 84 | 1012.4 |
| 20260831205729 | 85 | 30 | 3.0 | 6.0 | 0.00 | 0.00 | 0.00 | 85 | 1012.5 |
| 20260831205230 | 85 | 317 | 2.0 | 5.0 | 0.00 | 0.00 | 0.00 | 85 | 1012.5 |
| 20260831204730 | 85 | 311 | 1.0 | 5.0 | 0.00 | 0.00 | 0.00 | 87 | 1012.5 |
| 20260831204505 | 84 | 5 | 0.0 | 3.0 | 0.00 | 0.00 | 0.00 | 87 | 1012.4 |
| 20260831204230 | 84 | 331 | 1.0 | 4.0 | 0.00 | 0.00 | 0.00 | 87 | 1012.6 |
| 20260831203729 | 84 | 282 | 1.0 | 5.0 | 0.00 | 0.00 | 0.00 | 87 | 1012.6 |
| 20260831203230 | 84 | 335 | 1.0 | 5.0 | 0.00 | 0.00 | 0.00 | 87 | 1012.6 |
| 20260831203008 | 83 | 252 | 1.0 | 5.0 | 0.00 | 0.00 | 0.00 | 87 | 1012.4 |
| 20260831202729 | 83 | 305 | 1.0 | 3.0 | 0.00 | 0.00 | 0.00 | 87 | 1012.6 |
| 20260831202229 | 83 | 313 | 1.0 | 3.0 | 0.00 | 0.00 | 0.00 | 88 | 1012.6 |
| 20260831201730 | 83 | 308 | 1.0 | 2.0 | 0.00 | 0.00 | 0.00 | 87 | 1012.6 |
| 20260831201525 | 83 | 303 | 0.0 | 3.0 | 0.00 | 0.00 | 0.00 | 87 | 1012.8 |
| 20260831201514 | 82 | 316 | 0.0 | 2.0 | 0.00 | 0.00 | 0.00 | 87 | 1012.7 |
| 20260831200729 | 83 | 252 | 1.0 | 3.0 | 0.00 | 0.00 | 0.00 | 87 | 1012.8 |
| 20260831200231 | 83 | 275 | 1.0 | 2.0 | 0.00 | 0.00 | 0.00 | 87 | 1012.8 |
| 20260831200004 | 82 | 286 | 0.0 | 2.0 | 0.00 | 0.00 | 0.00 | 87 | 1012.9 |
| 20260831195729 | 83 | 223 | 0.0 | 2.0 | 0.00 | 0.00 | 0.00 | 87 | 1013.1 |
| 20260831195230 | 83 | 240 | 0.0 | 2.0 | 0.00 | 0.00 | 0.00 | 87 | 1013.1 |
| 20260831194721 | 83 | 234 | 0.0 | 2.0 | 0.00 | 0.00 | 0.00 | 87 | 1013.1 |
| 20260831194518 | 83 | 225 | 0.0 | 2.0 | 0.00 | 0.00 | 0.00 | 87 | 1013.2 |
| 20260831194513 | 82 | 234 | 0.0 | 2.0 | 0.00 | 0.00 | 0.00 | 87 | 1013.0 |
| 20260831194019 | 83 | 223 | 1.0 | 2.0 | 0.00 | 0.00 | 0.00 | 87 | 1013.2 |
| 20260831193221 | 82 | 271 | 1.0 | 3.0 | 0.00 | 0.00 | 0.00 | 86 | 1013.2 |
| 20260831193006 | 82 | 296 | 0.0 | 3.0 | 0.00 | 0.00 | 0.00 | 86 | 1013.1 |
| 20260831192722 | 82 | 275 | 1.0 | 3.0 | 0.00 | 0.00 | 0.00 | 86 | 1013.2 |
| 20260831192554 | 82 | 281 | 2.0 | 5.0 | 0.00 | 0.00 | 0.00 | 86 | 1013.2 |
| 20260831192548 | 82 | 298 | 1.0 | 5.0 | 0.00 | 0.00 | 0.00 | 86 | 1013.2 |
| 20260831191517 | 81 | 311 | 1.0 | 5.0 | 0.00 | 0.00 | 0.00 | 85 | 1013.0 |
| 20260831191215 | 82 | 274 | 2.0 | 6.0 | 0.00 | 0.00 | 0.00 | 85 | 1013.1 |
| 20260831190715 | 82 | 317 | 2.0 | 6.0 | 0.00 | 0.00 | 0.00 | 85 | 1013.1 |
| 20260831190215 | 83 | 251 | 1.0 | 4.0 | 0.00 | 0.00 | 0.00 | 84 | 1013.1 |
| 20260831190005 | 83 | 263 | 1.0 | 3.0 | 0.00 | 0.00 | 0.00 | 84 | 1012.8 |
| 20260831185717 | 83 | 252 | 1.0 | 3.0 | 0.00 | 0.00 | 0.00 | 84 | 1012.9 |
| 20260831185214 | 83 | 226 | 1.0 | 5.0 | 0.00 | 0.00 | 0.00 | 84 | 1012.9 |
| 20260831184715 | 83 | 227 | 2.0 | 6.0 | 0.00 | 0.00 | 0.00 | 84 | 1012.9 |
| 20260831184557 | 82 | 194 | 1.0 | 6.0 | 0.00 | 0.00 | 0.00 | 84 | 1012.9 |
| 20260831184212 | 83 | 259 | 2.0 | 6.0 | 0.00 | 0.00 | 0.00 | 84 | 1013.1 |
| 20260831184012 | 84 | 257 | 2.0 | 7.0 | 0.00 | 0.00 | 0.00 | 83 | 1013.1 |